Time;durP1;ratioP1;P1;durP2;ratioP2;P2;SDS_P1;SDS_P2;PMS_P1;PMS_P2;Temp;Humidity;BMP_temperature;BMP_pressure;BME280_temperature;BME280_humidity;BME280_pressure;Samples;Min_cycle;Max_cycle;Signal;HPM_P1;HPM_P2
2022/06/03 00:02:25;;;;;;;1.67;1.40;;;12.80;99.90;;;;;;4992739;28;20577;-73
2022/06/03 00:05:21;;;;;;;2.10;1.90;;;12.80;99.90;;;;;;4999740;28;20026;-73
2022/06/03 00:08:11;;;;;;;2.67;1.50;;;12.70;99.90;;;;;;4992834;28;20485;-73
2022/06/03 00:10:52;;;;;;;2.03;1.80;;;11.50;99.90;;;;;;5005197;28;20502;-73
2022/06/03 00:13:49;;;;;;;1.38;1.27;;;11.40;99.90;;;;;;4991415;28;20688;-75
2022/06/03 00:16:43;;;;;;;2.53;1.60;;;12.00;99.90;;;;;;5012542;28;20571;-75
2022/06/03 00:19:26;;;;;;;1.60;1.50;;;12.10;99.90;;;;;;5012274;28;20022;-75
2022/06/03 00:22:09;;;;;;;1.67;1.52;;;12.10;99.90;;;;;;5010832;28;20546;-75
2022/06/03 00:24:56;;;;;;;1.88;1.60;;;12.10;99.90;;;;;;5012241;28;20030;-75
2022/06/03 00:27:56;;;;;;;2.38;1.60;;;11.90;99.90;;;;;;4997660;28;20030;-73
2022/06/03 00:30:40;;;;;;;1.92;1.50;;;11.90;99.90;;;;;;5007945;28;20018;-73
2022/06/03 00:33:19;;;;;;;2.25;1.30;;;12.50;99.90;;;;;;5005233;28;20427;-73
2022/06/03 00:35:52;;;;;;;1.60;1.50;;;12.50;99.90;;;;;;5012196;28;20499;-73
2022/06/03 00:38:45;;;;;;;1.60;1.50;;;12.20;99.90;;;;;;5006655;28;20036;-73
2022/06/03 00:41:30;;;;;;;1.88;1.52;;;11.70;99.90;;;;;;5011743;28;20026;-74
2022/06/03 00:44:23;;;;;;;1.73;1.63;;;12.00;99.90;;;;;;4988115;28;20029;-76
2022/06/03 00:46:56;;;;;;;1.65;1.55;;;12.30;99.90;;;;;;5008595;28;20030;-75
2022/06/03 00:49:48;;;;;;;2.15;1.50;;;12.50;99.90;;;;;;4981734;28;20125;-76
2022/06/03 00:52:52;;;;;;;1.83;1.40;;;12.70;99.90;;;;;;5001247;28;20034;-74
2022/06/03 00:55:39;;;;;;;2.65;1.40;;;12.70;99.90;;;;;;5000829;28;20032;-73
2022/06/03 00:58:42;;;;;;;1.90;1.60;;;12.50;99.90;;;;;;5007263;28;20098;-77
2022/06/03 01:01:33;;;;;;;2.80;1.63;;;12.30;99.90;;;;;;5007644;28;20026;-75
2022/06/03 01:04:17;;;;;;;3.05;1.67;;;12.40;99.90;;;;;;5001343;28;20100;-76
2022/06/03 01:07:12;;;;;;;1.40;1.30;;;12.50;99.90;;;;;;5000668;28;20030;-76
2022/06/03 01:10:14;;;;;;;1.95;1.42;;;12.50;99.90;;;;;;5011705;28;20026;-76
2022/06/03 01:13:04;;;;;;;2.83;1.60;;;12.40;99.90;;;;;;5011418;28;20080;-74
2022/06/03 01:15:57;;;;;;;2.78;1.63;;;12.20;99.90;;;;;;4999863;28;20072;-76
2022/06/03 01:18:37;;;;;;;1.48;1.38;;;12.20;99.90;;;;;;5011939;28;20071;-75
2022/06/03 01:21:34;;;;;;;1.83;1.50;;;12.40;99.90;;;;;;4983986;28;20037;-75
2022/06/03 01:24:00;;;;;;;;;;;12.30;99.90;;;;;;5009269;28;20058;-76
2022/06/03 01:27:06;;;;;;;5.27;1.60;;;12.20;99.90;;;;;;4985898;28;20398;-75
2022/06/03 01:29:56;;;;;;;1.75;1.65;;;12.20;99.90;;;;;;5011614;28;20033;-76
2022/06/03 01:32:44;;;;;;;1.80;1.55;;;12.00;99.90;;;;;;4981251;28;20085;-75
2022/06/03 01:35:24;;;;;;;2.22;1.60;;;12.00;99.90;;;;;;5002321;28;20018;-75
2022/06/03 01:38:04;;;;;;;2.78;1.67;;;12.00;99.90;;;;;;4987222;28;20029;-74
2022/06/03 01:40:51;;;;;;;2.00;1.58;;;12.10;99.90;;;;;;5014110;28;20030;-75
2022/06/03 01:43:49;;;;;;;1.50;1.40;;;12.10;99.90;;;;;;5013614;28;20022;-75
2022/06/03 01:46:17;;;;;;;2.40;1.67;;;12.00;99.90;;;;;;4990815;28;20029;-75
2022/06/03 01:48:59;;;;;;;2.78;1.60;;;12.00;99.90;;;;;;4995630;28;20042;-75
2022/06/03 01:51:50;;;;;;;2.05;1.70;;;11.80;99.90;;;;;;4977592;28;20551;-76
2022/06/03 01:54:47;;;;;;;3.42;1.90;;;11.80;99.90;;;;;;5008336;28;20036;-75
2022/06/03 01:57:52;;;;;;;1.67;1.58;;;11.70;99.90;;;;;;5014867;28;20025;-77
2022/06/03 02:00:35;;;;;;;2.47;1.88;;;11.60;99.90;;;;;;5004245;28;20076;-75
2022/06/03 02:03:10;;;;;;;1.92;1.83;;;11.60;99.90;;;;;;4998559;28;20045;-75
2022/06/03 02:05:54;;;;;;;2.80;1.55;;;11.60;99.90;;;;;;5014954;28;20029;-73
2022/06/03 02:08:45;;;;;;;2.17;2.00;;;11.40;99.90;;;;;;5007752;28;20026;-73
2022/06/03 02:11:35;;;;;;;1.90;1.77;;;11.80;99.90;;;;;;5000898;28;20442;-73
2022/06/03 02:14:25;;;;;;;2.45;1.70;;;12.30;99.90;;;;;;5001558;28;20030;-75
2022/06/03 02:17:16;;;;;;;3.25;1.73;;;12.40;99.90;;;;;;5013386;28;20563;-73
2022/06/03 02:20:00;;;;;;;2.75;2.15;;;12.50;99.90;;;;;;4992637;28;20470;-73
2022/06/03 02:22:51;;;;;;;1.83;1.73;;;12.40;99.90;;;;;;5014143;28;20030;-74
2022/06/03 02:25:42;;;;;;;2.35;1.92;;;12.50;99.90;;;;;;5014629;28;20029;-74
2022/06/03 02:28:17;;;;;;;4.53;1.90;;;12.70;99.90;;;;;;5002591;28;20027;-74
2022/06/03 02:31:07;;;;;;;1.70;1.60;;;12.40;99.90;;;;;;4994167;28;20089;-74
2022/06/03 02:34:16;;;;;;;3.50;2.10;;;12.50;99.90;;;;;;5011319;28;20025;-76
2022/06/03 02:37:03;;;;;;;4.72;2.28;;;12.50;99.90;;;;;;4988929;28;20038;-75
2022/06/03 02:39:54;;;;;;;3.53;2.13;;;12.40;99.90;;;;;;5014313;28;20021;-76
2022/06/03 02:43:01;;;;;;;1.90;1.80;;;12.40;99.90;;;;;;5013613;28;20026;-74
2022/06/03 02:46:03;;;;;;;2.40;2.00;;;12.50;99.90;;;;;;4957921;28;20065;-75
2022/06/03 02:48:50;;;;;;;3.33;1.75;;;12.00;99.90;;;;;;4991550;28;20472;-75
2022/06/03 02:51:41;;;;;;;2.22;1.98;;;12.10;99.90;;;;;;4995513;28;20384;-76
2022/06/03 02:54:31;;;;;;;2.58;2.38;;;12.10;99.90;;;;;;5014071;28;20018;-75
2022/06/03 02:57:31;;;;;;;2.75;1.90;;;12.10;99.90;;;;;;5002952;28;20101;-75
2022/06/03 03:00:09;;;;;;;3.58;2.28;;;12.60;99.90;;;;;;4986525;28;20109;-75
2022/06/03 03:03:10;;;;;;;2.95;2.10;;;12.40;99.90;;;;;;5013195;28;20045;-75
2022/06/03 03:06:15;;;;;;;2.58;2.13;;;12.50;99.90;;;;;;5013794;28;20036;-75
2022/06/03 03:09:09;;;;;;;2.33;1.92;;;12.70;99.90;;;;;;5004131;28;20045;-75
2022/06/03 03:11:59;;;;;;;2.13;1.83;;;12.60;99.90;;;;;;5002258;28;20439;-74
2022/06/03 03:14:24;;;;;;;2.17;1.98;;;12.50;99.90;;;;;;5008409;28;20505;-76
2022/06/03 03:17:09;;;;;;;2.10;2.00;;;12.50;99.90;;;;;;5005741;28;20036;-75
2022/06/03 03:20:00;;;;;;;2.05;1.88;;;12.40;99.90;;;;;;5005805;28;20025;-75
2022/06/03 03:22:35;;;;;;;2.75;1.90;;;12.50;99.90;;;;;;4968878;28;20030;-75
2022/06/03 03:25:34;;;;;;;2.75;2.05;;;12.60;99.90;;;;;;4988835;28;20187;-74
2022/06/03 03:28:21;;;;;;;2.60;2.13;;;12.70;99.90;;;;;;4985314;28;20019;-74
2022/06/03 03:31:26;;;;;;;2.45;2.25;;;12.50;99.90;;;;;;4985600;28;20040;-73
2022/06/03 03:34:49;;;;;;;3.15;2.50;;;12.50;99.90;;;;;;4974634;28;20034;-74
2022/06/03 03:37:38;;;;;;;2.53;2.33;;;12.60;99.90;;;;;;4949122;28;20065;-73
2022/06/03 03:40:41;;;;;;;2.42;2.22;;;12.80;99.90;;;;;;4949747;28;20030;-74
2022/06/03 03:43:25;;;;;;;3.72;2.03;;;12.90;99.90;;;;;;5013016;28;20033;-75
2022/06/03 03:46:09;;;;;;;2.50;2.13;;;13.00;99.90;;;;;;5013127;28;20113;-74
2022/06/03 03:49:00;;;;;;;2.10;2.00;;;13.10;99.90;;;;;;5013020;28;20392;-75
2022/06/03 03:51:26;;;;;;;3.30;2.20;;;13.10;99.90;;;;;;4994508;28;20025;-75
2022/06/03 03:54:18;;;;;;;2.20;2.10;;;13.10;99.90;;;;;;5011505;28;20030;-75
2022/06/03 03:56:53;;;;;;;2.95;1.92;;;13.10;99.90;;;;;;5011389;28;20116;-74
2022/06/03 03:59:47;;;;;;;3.58;2.30;;;12.80;99.90;;;;;;5012699;28;20021;-75
2022/06/03 04:02:48;;;;;;;3.65;2.38;;;12.90;99.90;;;;;;5012029;28;20432;-76
2022/06/03 04:05:38;;;;;;;2.10;2.00;;;12.90;99.90;;;;;;4975494;28;20100;-74
2022/06/03 04:08:22;;;;;;;2.78;2.58;;;12.90;99.90;;;;;;4999536;28;20026;-74
2022/06/03 04:11:05;;;;;;;2.92;2.33;;;12.90;99.90;;;;;;5011730;28;20022;-74
2022/06/03 04:13:42;;;;;;;4.60;2.22;;;13.00;99.90;;;;;;5012493;28;20022;-74
2022/06/03 04:16:24;;;;;;;2.35;2.15;;;13.00;99.90;;;;;;5011218;28;20156;-74
2022/06/03 04:19:27;;;;;;;2.53;2.33;;;13.30;99.90;;;;;;5011118;28;20579;-74
2022/06/03 04:22:23;;;;;;;2.35;2.15;;;13.30;99.90;;;;;;5010453;28;20805;-75
2022/06/03 04:25:16;;;;;;;2.15;2.00;;;13.20;99.90;;;;;;5012339;28;20022;-75
2022/06/03 04:28:21;;;;;;;2.97;2.78;;;13.40;99.90;;;;;;4998921;28;20121;-74
2022/06/03 04:31:10;;;;;;;2.80;2.20;;;13.40;99.90;;;;;;5010751;28;20065;-73
2022/06/03 04:33:52;;;;;;;2.45;2.22;;;13.60;99.90;;;;;;5012191;28;20049;-75
2022/06/03 04:37:08;;;;;;;4.13;2.20;;;13.60;99.90;;;;;;5002890;28;20079;-75
2022/06/03 04:40:07;;;;;;;4.35;2.45;;;13.70;99.90;;;;;;4966254;28;20151;-76
2022/06/03 04:43:10;;;;;;;3.53;2.50;;;13.80;99.90;;;;;;5001624;28;20018;-75
2022/06/03 04:45:42;;;;;;;2.90;2.30;;;13.90;99.90;;;;;;5000375;28;20030;-75
2022/06/03 04:48:21;;;;;;;3.35;2.40;;;14.00;99.90;;;;;;4996902;28;20033;-75
2022/06/03 04:51:02;;;;;;;2.72;2.42;;;14.10;99.90;;;;;;4992678;28;20026;-75
2022/06/03 04:53:43;;;;;;;2.30;2.10;;;14.20;99.90;;;;;;4993232;28;20030;-75
2022/06/03 04:56:37;;;;;;;4.53;2.28;;;14.40;99.90;;;;;;4994675;28;20034;-75
2022/06/03 04:59:28;;;;;;;2.60;2.40;;;14.40;99.90;;;;;;5013178;28;20030;-76
2022/06/03 05:02:41;;;;;;;3.75;2.08;;;14.70;99.90;;;;;;4981767;28;20030;-76
2022/06/03 05:05:28;;;;;;;2.72;2.45;;;14.70;99.90;;;;;;4989926;28;20440;-77
2022/06/03 05:08:09;;;;;;;3.58;2.47;;;14.80;99.90;;;;;;4995082;28;20062;-77
2022/06/03 05:10:56;;;;;;;4.57;2.90;;;14.90;99.90;;;;;;5011688;28;20022;-76
2022/06/03 05:14:08;;;;;;;2.47;2.28;;;15.10;99.90;;;;;;4991047;28;20104;-77
2022/06/03 05:16:42;;;;;;;2.85;2.33;;;15.20;99.90;;;;;;5008409;28;20365;-76
2022/06/03 05:19:27;;;;;;;2.60;2.40;;;15.50;99.90;;;;;;5018254;28;20025;-76
2022/06/03 05:22:18;;;;;;;2.90;2.13;;;15.70;99.90;;;;;;5019167;28;20018;-77
2022/06/03 05:25:18;;;;;;;3.08;2.28;;;15.90;99.90;;;;;;5019133;28;20026;-76
2022/06/03 05:28:10;;;;;;;2.35;2.13;;;16.10;99.90;;;;;;5006748;28;20037;-76
2022/06/03 05:30:41;;;;;;;2.60;2.08;;;16.40;99.90;;;;;;5017029;28;20029;-76
2022/06/03 05:33:33;;;;;;;2.97;2.20;;;16.60;99.90;;;;;;5007155;28;20041;-77
2022/06/03 05:36:36;;;;;;;2.58;2.10;;;16.70;99.90;;;;;;4996862;28;20028;-76
2022/06/03 05:39:45;;;;;;;4.50;2.05;;;16.90;99.90;;;;;;5006095;28;20022;-77
2022/06/03 05:42:41;;;;;;;4.60;2.08;;;17.00;99.90;;;;;;4991373;28;20033;-77
2022/06/03 05:45:37;;;;;;;2.65;1.95;;;17.10;99.90;;;;;;5013976;28;20034;-76
2022/06/03 05:48:06;;;;;;;2.53;2.33;;;17.30;99.90;;;;;;5011582;28;20022;-75
2022/06/03 05:50:50;;;;;;;2.50;2.30;;;17.40;99.90;;;;;;4980255;28;20328;-76
2022/06/03 05:53:39;;;;;;;2.63;2.00;;;17.60;99.90;;;;;;4993922;28;20069;-76
2022/06/03 05:56:24;;;;;;;2.20;2.00;;;17.70;99.90;;;;;;4993810;28;20018;-77
2022/06/03 05:58:54;;;;;;;4.53;2.83;;;17.70;99.90;;;;;;4986703;28;20026;-76
2022/06/03 06:01:39;;;;;;;4.10;2.00;;;17.60;99.90;;;;;;4996487;28;20029;-73
2022/06/03 06:04:20;;;;;;;2.40;2.20;;;17.60;99.90;;;;;;4998751;28;20033;-76
2022/06/03 06:07:15;;;;;;;2.95;2.22;;;17.60;99.90;;;;;;5017266;28;20021;-76
2022/06/03 06:10:08;;;;;;;3.78;2.20;;;17.70;99.90;;;;;;5011237;28;20034;-76
2022/06/03 06:12:52;;;;;;;3.13;2.20;;;17.70;99.90;;;;;;4993169;28;20032;-76
2022/06/03 06:15:32;;;;;;;2.53;2.30;;;17.80;99.90;;;;;;4993043;28;20040;-77
2022/06/03 06:18:52;;;;;;;4.13;2.20;;;17.70;99.90;;;;;;5005671;28;20034;-76
2022/06/03 06:21:29;;;;;;;2.35;2.15;;;17.90;99.90;;;;;;4923135;29;20027;-76
2022/06/03 06:24:12;;;;;;;2.22;2.05;;;17.90;99.90;;;;;;5016464;28;20045;-76
2022/06/03 06:27:20;;;;;;;2.97;2.40;;;18.10;99.90;;;;;;5004262;28;20061;-75
2022/06/03 06:29:57;;;;;;;2.30;2.10;;;18.20;99.90;;;;;;5006426;28;20026;-75
2022/06/03 06:32:41;;;;;;;3.38;2.10;;;18.40;99.90;;;;;;5015033;28;20436;-76
2022/06/03 06:35:37;;;;;;;3.10;2.20;;;18.30;99.90;;;;;;5014825;28;20080;-76
2022/06/03 06:38:31;;;;;;;1.95;1.70;;;18.40;99.90;;;;;;5014687;28;20068;-76
2022/06/03 06:41:23;;;;;;;3.35;2.22;;;18.50;99.90;;;;;;5014040;28;20089;-77
2022/06/03 06:43:55;;;;;;;3.22;2.10;;;18.50;99.90;;;;;;5014172;28;20037;-77
2022/06/03 06:46:49;;;;;;;2.53;2.30;;;18.50;99.90;;;;;;5000998;28;20080;-77
2022/06/03 06:49:43;;;;;;;2.30;2.10;;;18.60;99.90;;;;;;5002570;28;20501;-79
2022/06/03 06:52:21;;;;;;;3.17;2.60;;;18.70;99.90;;;;;;4990748;28;20395;-77
2022/06/03 06:55:12;;;;;;;2.47;2.28;;;18.80;99.90;;;;;;5009809;28;20507;-76
2022/06/03 06:57:46;;;;;;;2.90;2.25;;;18.90;99.90;;;;;;4991343;28;20145;-76
2022/06/03 07:00:32;;;;;;;4.65;2.30;;;19.10;99.90;;;;;;5013973;28;20022;-76
2022/06/03 07:03:16;;;;;;;3.70;1.98;;;19.20;99.90;;;;;;5013644;28;20439;-76
2022/06/03 07:05:53;;;;;;;3.22;2.33;;;19.30;99.90;;;;;;5015074;28;20479;-76
2022/06/03 07:08:42;;;;;;;3.55;2.58;;;19.30;99.90;;;;;;4996308;28;20018;-76
2022/06/03 07:11:27;;;;;;;2.95;2.17;;;19.30;99.90;;;;;;5013808;28;20097;-76
2022/06/03 07:14:20;;;;;;;2.30;2.10;;;19.50;99.90;;;;;;5009416;28;20029;-76
2022/06/03 07:20:05;;;;;;;3.65;2.13;;;19.70;99.90;;;;;;5012605;28;20068;-77
2022/06/03 07:22:37;;;;;;;2.67;2.47;;;19.90;99.90;;;;;;4975030;28;20034;-77
2022/06/03 07:25:27;;;;;;;2.70;2.20;;;20.10;99.90;;;;;;5019444;28;20030;-77
2022/06/03 07:28:18;;;;;;;2.58;2.38;;;20.20;99.90;;;;;;5016300;28;20014;-77
2022/06/03 07:31:22;;;;;;;2.58;2.38;;;20.40;99.90;;;;;;5010359;28;20030;-77
2022/06/03 07:33:54;;;;;;;3.75;2.20;;;20.60;99.90;;;;;;5016017;28;20014;-76
2022/06/03 07:36:47;;;;;;;2.85;1.80;;;20.80;99.90;;;;;;5006732;28;20041;-77
2022/06/03 07:39:39;;;;;;;2.40;2.20;;;20.70;99.90;;;;;;5010087;28;20028;-77
2022/06/03 07:42:40;;;;;;;2.80;2.30;;;20.60;99.90;;;;;;5010352;28;20034;-77
2022/06/03 07:45:26;;;;;;;2.50;2.30;;;20.80;99.90;;;;;;5015171;28;20030;-77
2022/06/03 07:47:54;;;;;;;3.05;2.45;;;20.70;99.90;;;;;;4995930;28;20030;-77
2022/06/03 07:50:21;;;;;;;2.47;2.22;;;21.00;99.90;;;;;;5001424;28;20061;-77
2022/06/03 07:53:07;;;;;;;2.65;2.45;;;21.00;99.90;;;;;;5016492;28;20018;-77
2022/06/03 07:55:35;;;;;;;3.22;2.25;;;20.80;99.90;;;;;;5002793;28;20022;-77
2022/06/03 07:58:10;;;;;;;2.58;2.38;;;20.80;99.90;;;;;;5021187;28;20384;-77
2022/06/03 08:00:38;;;;;;;2.75;2.20;;;21.00;99.90;;;;;;5021475;28;20022;-77
2022/06/03 08:03:14;;;;;;;2.72;2.38;;;21.20;99.90;;;;;;5021474;28;20030;-77
2022/06/03 08:05:39;;;;;;;3.10;2.67;;;21.30;99.90;;;;;;5022137;28;20022;-77
2022/06/03 08:11:06;;;;;;;3.00;2.22;;;21.60;99.90;;;;;;5008284;28;20037;-76
2022/06/03 08:13:41;;;;;;;3.15;2.63;;;21.70;99.90;;;;;;5022142;28;20024;-77
2022/06/03 08:16:25;;;;;;;4.63;2.50;;;21.90;99.90;;;;;;5021746;28;20056;-77
2022/06/03 08:18:54;;;;;;;3.10;2.20;;;22.00;99.90;;;;;;5022184;28;20013;-77
2022/06/03 08:21:21;;;;;;;2.53;2.30;;;22.00;99.90;;;;;;5010622;28;20086;-77
2022/06/03 08:23:47;;;;;;;5.20;2.25;;;22.30;99.90;;;;;;5022409;28;20021;-77
2022/06/03 08:26:19;;;;;;;6.32;2.55;;;22.30;99.90;;;;;;5022180;28;20049;-77
2022/06/03 08:28:50;;;;;;;2.80;2.60;;;22.20;99.90;;;;;;5004357;28;20052;-76
2022/06/03 08:31:20;;;;;;;3.55;2.50;;;22.50;99.90;;;;;;5021366;28;20030;-77
2022/06/03 08:33:51;;;;;;;2.70;2.50;;;22.60;99.90;;;;;;5023159;28;20112;-77
2022/06/03 08:36:22;;;;;;;3.53;2.60;;;22.70;99.90;;;;;;5021720;28;20087;-77
2022/06/03 08:39:08;;;;;;;4.32;2.72;;;22.30;99.90;;;;;;5022283;28;20026;-77
2022/06/03 08:41:55;;;;;;;3.58;2.35;;;22.80;99.90;;;;;;5017737;28;20037;-77
2022/06/03 08:44:48;;;;;;;3.53;2.63;;;22.90;99.90;;;;;;5018114;28;20552;-77
2022/06/03 08:47:18;;;;;;;3.47;2.47;;;23.10;99.90;;;;;;5006649;28;20498;-77
2022/06/03 08:49:46;;;;;;;4.40;2.55;;;22.90;99.90;;;;;;5017886;28;20033;-77
2022/06/03 08:52:14;;;;;;;4.35;2.28;;;23.10;99.90;;;;;;4999624;28;20088;-77
2022/06/03 08:54:54;;;;;;;2.47;2.28;;;23.20;99.90;;;;;;5018815;28;20057;-77
2022/06/03 08:57:42;;;;;;;2.90;2.58;;;23.30;99.90;;;;;;5016417;28;20046;-76
2022/06/03 09:00:15;;;;;;;2.67;2.47;;;23.20;99.90;;;;;;5015588;28;20492;-77
2022/06/03 09:02:57;;;;;;;2.80;2.60;;;23.10;99.90;;;;;;5009016;28;20389;-77
2022/06/03 09:05:32;;;;;;;3.67;2.40;;;23.30;99.90;;;;;;5003828;28;20134;-77
2022/06/03 09:08:13;;;;;;;4.88;2.85;;;23.40;99.90;;;;;;4998575;28;20105;-77
2022/06/03 09:10:48;;;;;;;3.58;2.35;;;23.70;99.90;;;;;;4997909;28;20030;-78
2022/06/03 09:13:19;;;;;;;2.80;2.40;;;23.80;99.90;;;;;;5002508;28;20033;-76
2022/06/03 09:15:48;;;;;;;2.55;2.35;;;23.80;99.90;;;;;;5005105;28;20027;-76
2022/06/03 09:18:36;;;;;;;3.35;2.47;;;24.10;99.90;;;;;;4985907;28;20033;-76
2022/06/03 09:21:06;;;;;;;4.43;2.55;;;24.10;99.90;;;;;;4982710;28;20419;-78
2022/06/03 09:23:54;;;;;;;4.25;2.30;;;24.10;99.90;;;;;;5013637;28;20030;-77
2022/06/03 09:26:26;;;;;;;4.18;2.30;;;24.30;99.90;;;;;;5003642;28;20033;-78
2022/06/03 09:28:54;;;;;;;2.70;2.45;;;24.20;99.90;;;;;;5011318;28;20100;-77
2022/06/03 09:31:21;;;;;;;4.20;2.33;;;24.40;99.90;;;;;;5011686;28;20105;-77
2022/06/03 09:33:48;;;;;;;3.47;2.30;;;24.40;99.90;;;;;;5008136;28;20022;-77
2022/06/03 09:36:18;;;;;;;3.38;2.30;;;24.60;99.90;;;;;;5006398;28;20112;-78
2022/06/03 09:39:08;;;;;;;2.33;2.13;;;24.70;99.90;;;;;;5008346;28;20076;-78
2022/06/03 09:41:55;;;;;;;2.67;2.30;;;24.70;99.90;;;;;;5005605;28;20038;-78
2022/06/03 09:44:23;;;;;;;2.30;2.10;;;24.80;99.90;;;;;;5018210;28;20022;-77
2022/06/03 09:47:00;;;;;;;6.30;2.63;;;25.00;99.90;;;;;;5016752;28;20020;-78
2022/06/03 09:49:28;;;;;;;4.93;2.38;;;25.10;99.90;;;;;;4993753;28;20030;-78
2022/06/03 09:51:57;;;;;;;4.00;2.75;;;25.10;99.90;;;;;;4998698;28;20033;-78
2022/06/03 09:54:30;;;;;;;4.32;2.67;;;25.10;99.90;;;;;;5014675;28;20022;-78
2022/06/03 09:57:04;;;;;;;2.83;2.30;;;25.30;99.90;;;;;;4989937;28;20054;-78
2022/06/03 09:59:33;;;;;;;3.55;2.55;;;25.40;99.90;;;;;;4991223;28;20030;-77
2022/06/03 10:01:59;;;;;;;2.80;2.50;;;25.60;99.90;;;;;;4987011;28;20030;-77
2022/06/03 10:04:24;;;;;;;2.72;2.40;;;25.40;99.90;;;;;;5001898;28;20049;-77
2022/06/03 10:06:51;;;;;;;4.30;2.47;;;25.60;99.90;;;;;;5005528;28;20361;-77
2022/06/03 10:18:03;;;;;;;4.07;2.40;;;25.90;99.90;;;;;;5007695;28;20030;-75
2022/06/03 10:20:30;;;;;;;5.95;2.65;;;26.10;99.90;;;;;;4990001;28;20037;-77
2022/06/03 10:22:55;;;;;;;3.42;2.42;;;26.10;99.90;;;;;;4986011;28;20018;-77
2022/06/03 10:25:23;;;;;;;4.75;2.25;;;26.20;99.90;;;;;;5001570;28;20026;-77
2022/06/03 10:27:49;;;;;;;5.07;2.38;;;26.30;99.90;;;;;;4996925;28;20022;-77
2022/06/03 10:30:25;;;;;;;3.05;2.80;;;26.40;99.90;;;;;;5013945;28;20589;-80
2022/06/03 10:32:51;;;;;;;3.45;2.47;;;26.60;99.90;;;;;;5014331;28;20069;-77
2022/06/03 10:35:18;;;;;;;2.55;2.33;;;26.70;99.90;;;;;;5011082;28;20108;-77
2022/06/03 10:37:49;;;;;;;2.45;2.25;;;26.50;99.90;;;;;;4987234;28;20033;-77
2022/06/03 10:40:14;;;;;;;4.43;2.40;;;26.50;99.90;;;;;;5000683;28;20096;-78
2022/06/03 10:42:46;;;;;;;6.15;2.35;;;26.60;99.90;;;;;;5003759;28;20070;-77
2022/06/03 10:45:12;;;;;;;4.43;2.40;;;27.00;99.90;;;;;;5012739;28;20022;-77
2022/06/03 10:47:39;;;;;;;4.03;2.78;;;26.70;99.90;;;;;;5014229;28;20036;-77
2022/06/03 10:50:26;;;;;;;2.50;2.30;;;26.70;99.90;;;;;;4978465;28;20121;-77
2022/06/03 11:01:06;;;;;;;3.45;2.92;;;27.00;99.90;;;;;;5014164;28;20048;-77
2022/06/03 11:01:54;;;;;;;2.97;2.60;;;27.50;99.90;;;;;;5010149;28;20091;-78
2022/06/03 11:04:27;;;;;;;6.22;2.83;;;27.70;99.90;;;;;;4986794;28;20029;-77
2022/06/03 11:06:53;;;;;;;2.88;2.55;;;27.50;99.90;;;;;;5013439;28;20018;-77
2022/06/03 11:09:19;;;;;;;3.10;2.40;;;27.40;99.90;;;;;;5009023;28;20037;-76
2022/06/03 11:12:01;;;;;;;2.55;2.28;;;27.70;99.40;;;;;;5004102;28;20033;-78
2022/06/03 11:14:41;;;;;;;3.75;2.50;;;27.70;99.40;;;;;;5009902;28;20031;-77
2022/06/03 11:17:20;;;;;;;4.65;2.50;;;27.30;99.10;;;;;;5011094;28;20476;-77
2022/06/03 11:19:56;;;;;;;2.60;2.40;;;27.60;99.40;;;;;;5006601;28;20076;-77
2022/06/03 11:22:23;;;;;;;3.20;2.50;;;27.60;98.90;;;;;;5011814;28;20120;-77
2022/06/03 11:25:03;;;;;;;3.17;2.47;;;27.80;99.70;;;;;;5021563;28;20113;-78
2022/06/03 11:27:50;;;;;;;2.78;2.55;;;28.20;99.10;;;;;;5020896;28;20033;-77
2022/06/03 11:30:43;;;;;;;10.60;3.38;;;28.10;99.70;;;;;;5016748;28;20026;-78
2022/06/03 11:33:39;;;;;;;3.80;2.38;;;27.80;98.20;;;;;;5015356;28;20038;-79
2022/06/03 11:36:31;;;;;;;3.03;2.25;;;27.90;98.50;;;;;;4992984;28;20184;-78
2022/06/03 11:39:11;;;;;;;4.00;2.67;;;28.00;98.40;;;;;;4999322;28;20025;-79
2022/06/03 11:41:56;;;;;;;5.20;2.50;;;27.90;98.30;;;;;;5012541;28;20029;-78
2022/06/03 11:44:39;;;;;;;2.80;2.50;;;28.20;97.80;;;;;;5002422;28;20380;-78
2022/06/03 11:47:23;;;;;;;2.92;2.30;;;28.60;98.00;;;;;;5013566;28;20109;-78
2022/06/03 11:49:50;;;;;;;2.50;2.30;;;28.70;97.00;;;;;;5013137;28;20025;-77
2022/06/03 11:52:16;;;;;;;3.72;2.30;;;29.30;97.50;;;;;;5012165;28;20484;-77
2022/06/03 11:54:42;;;;;;;4.00;2.30;;;;;;;;;;5012921;28;20101;-77
2022/06/03 11:57:09;;;;;;;3.40;2.33;;;28.70;96.90;;;;;;5003129;28;20109;-78
2022/06/03 11:59:38;;;;;;;3.80;2.53;;;29.10;97.40;;;;;;5006653;28;20446;-77
2022/06/03 12:02:17;;;;;;;2.67;2.25;;;29.10;96.30;;;;;;4986337;28;20454;-77
2022/06/03 12:04:44;;;;;;;3.67;2.45;;;;;;;;;;5001134;28;20105;-78
2022/06/03 12:07:41;;;;;;;2.63;2.25;;;29.70;96.70;;;;;;5014869;28;20021;-78
2022/06/03 12:10:24;;;;;;;2.92;2.60;;;29.80;96.90;;;;;;5004705;28;20505;-77
2022/06/03 12:13:15;;;;;;;6.40;2.20;;;30.40;95.90;;;;;;5013995;28;20080;-77
2022/06/03 12:15:53;;;;;;;3.10;2.55;;;29.90;95.80;;;;;;5014899;28;20022;-77
2022/06/03 12:18:31;;;;;;;3.17;2.30;;;30.50;95.80;;;;;;5004922;28;20042;-76
2022/06/03 12:21:05;;;;;;;2.65;2.45;;;30.80;95.10;;;;;;4999852;28;20032;-77
2022/06/03 12:23:36;;;;;;;4.03;2.22;;;30.70;94.40;;;;;;5015428;28;20033;-79
2022/06/03 12:26:05;;;;;;;3.33;2.45;;;30.60;94.40;;;;;;5001391;28;20030;-78
2022/06/03 12:28:37;;;;;;;2.55;2.35;;;30.50;94.60;;;;;;4997414;28;20048;-78
2022/06/03 12:31:14;;;;;;;9.88;2.90;;;29.70;95.20;;;;;;5007395;28;20057;-78
2022/06/03 12:33:52;;;;;;;2.42;2.22;;;30.60;95.80;;;;;;4980538;28;20536;-80
2022/06/03 12:36:36;;;;;;;5.03;2.80;;;31.00;95.00;;;;;;5007050;28;20053;-80
2022/06/03 12:39:08;;;;;;;3.40;2.70;;;29.40;95.10;;;;;;5002862;28;20026;-80
2022/06/03 12:41:45;;;;;;;3.58;2.70;;;29.60;94.90;;;;;;5013744;28;20026;-77
2022/06/03 12:44:34;;;;;;;3.88;2.80;;;30.40;97.60;;;;;;5013077;28;20048;-78
2022/06/03 12:47:27;;;;;;;3.05;2.40;;;30.60;94.60;;;;;;4976662;28;20034;-77
2022/06/03 12:50:06;;;;;;;2.80;2.28;;;31.40;94.10;;;;;;5009086;28;20018;-75
2022/06/03 12:52:33;;;;;;;2.80;2.60;;;30.90;97.20;;;;;;5017129;28;20098;-78
2022/06/03 12:55:06;;;;;;;3.15;2.60;;;30.90;93.40;;;;;;5020604;28;20435;-78
2022/06/03 12:57:38;;;;;;;2.85;2.65;;;31.10;92.90;;;;;;5020351;28;20028;-78
2022/06/03 13:00:12;;;;;;;2.70;2.50;;;30.70;93.20;;;;;;5019127;28;20084;-78
2022/06/03 13:02:56;;;;;;;3.25;2.45;;;30.70;92.50;;;;;;5017894;28;20022;-78
2022/06/03 13:05:27;;;;;;;3.58;2.80;;;31.20;92.80;;;;;;5019382;28;20026;-78
2022/06/03 13:08:28;;;;;;;2.80;2.60;;;31.40;93.10;;;;;;5020759;28;20022;-78
2022/06/03 13:11:05;;;;;;;2.83;2.63;;;31.30;92.90;;;;;;5019970;28;20022;-78
2022/06/03 13:13:32;;;;;;;2.80;2.60;;;31.10;93.20;;;;;;5020956;28;20025;-78
2022/06/03 13:16:17;;;;;;;2.97;2.42;;;30.80;92.20;;;;;;5020292;28;20545;-78
2022/06/03 13:18:45;;;;;;;4.03;2.70;;;31.10;92.60;;;;;;5014967;28;20105;-77
2022/06/03 13:21:11;;;;;;;3.38;2.20;;;30.80;93.00;;;;;;5001086;28;20369;-78
2022/06/03 13:23:45;;;;;;;5.97;2.80;;;30.60;93.20;;;;;;5001239;28;20025;-78
2022/06/03 13:26:20;;;;;;;3.05;2.50;;;31.60;92.50;;;;;;5005625;28;20399;-78
2022/06/03 13:28:50;;;;;;;4.47;2.70;;;32.00;91.90;;;;;;5012910;28;20117;-77
2022/06/03 13:31:22;;;;;;;3.47;2.42;;;32.30;92.60;;;;;;5008387;28;20042;-77
2022/06/03 13:34:12;;;;;;;4.00;2.25;;;31.40;91.80;;;;;;5013121;28;20068;-78
2022/06/03 13:36:39;;;;;;;2.55;2.35;;;31.00;91.60;;;;;;5013596;28;20556;-78
2022/06/03 13:39:07;;;;;;;4.57;2.40;;;31.40;91.20;;;;;;5001000;28;20068;-77
2022/06/03 13:44:55;;;;;;;4.53;2.50;;;31.00;91.70;;;;;;5013714;28;20048;-78
2022/06/03 13:47:22;;;;;;;4.05;2.55;;;30.70;92.10;;;;;;5015326;28;20018;-76
2022/06/03 13:50:12;;;;;;;2.60;2.40;;;31.80;92.40;;;;;;5015291;28;20042;-78
2022/06/03 13:52:49;;;;;;;3.45;2.30;;;32.50;91.60;;;;;;5014520;28;20396;-76
2022/06/03 13:55:25;;;;;;;3.45;2.40;;;32.50;90.20;;;;;;5014896;28;20030;-78
2022/06/03 13:57:55;;;;;;;3.72;2.80;;;32.70;90.90;;;;;;5001405;28;20022;-78
2022/06/03 14:00:32;;;;;;;4.03;2.50;;;32.90;90.90;;;;;;5004005;28;20068;-78
2022/06/03 14:03:04;;;;;;;3.00;2.67;;;33.30;91.50;;;;;;5015034;28;20458;-78
2022/06/03 14:05:38;;;;;;;2.70;2.50;;;33.40;90.80;;;;;;4986009;28;20030;-77
2022/06/03 14:08:14;;;;;;;4.80;2.40;;;33.30;89.20;;;;;;4992761;28;20033;-78
2022/06/03 14:10:47;;;;;;;4.75;2.55;;;31.30;91.40;;;;;;4995992;28;20033;-77
2022/06/03 14:13:13;;;;;;;2.83;2.45;;;31.70;90.70;;;;;;4985958;28;20022;-78
2022/06/03 14:16:04;;;;;;;3.08;2.35;;;32.30;90.00;;;;;;5014853;28;20032;-78
2022/06/03 14:18:58;;;;;;;3.05;2.13;;;31.80;91.00;;;;;;5014906;28;20026;-78
2022/06/03 14:21:24;;;;;;;2.63;2.42;;;30.60;91.40;;;;;;5003379;28;20468;-77
2022/06/03 14:23:51;;;;;;;4.60;2.38;;;30.50;92.40;;;;;;5014631;28;20037;-78
2022/06/03 14:26:22;;;;;;;2.55;2.33;;;30.10;91.90;;;;;;5007552;28;20037;-78
2022/06/03 14:28:58;;;;;;;2.95;2.50;;;29.90;92.10;;;;;;5001566;28;20100;-77
2022/06/03 14:31:38;;;;;;;4.22;2.90;;;30.00;93.10;;;;;;4984923;28;20040;-77